sensor_id;sensor_type;location;lat;lon;timestamp;P1;durP1;ratioP1;P2;durP2;ratioP2
9972;SDS011;5027;53.560;10.062;2023-11-22T00:02:17;3.03;;;2.60;;
9972;SDS011;5027;53.560;10.062;2023-11-22T00:04:44;4.17;;;3.50;;
9972;SDS011;5027;53.560;10.062;2023-11-22T00:07:11;3.57;;;2.87;;
9972;SDS011;5027;53.560;10.062;2023-11-22T00:09:38;6.90;;;3.10;;
9972;SDS011;5027;53.560;10.062;2023-11-22T00:12:05;4.33;;;2.97;;
9972;SDS011;5027;53.560;10.062;2023-11-22T00:14:32;3.33;;;2.97;;
9972;SDS011;5027;53.560;10.062;2023-11-22T00:17:01;3.00;;;2.50;;
9972;SDS011;5027;53.560;10.062;2023-11-22T00:19:28;4.13;;;2.83;;
9972;SDS011;5027;53.560;10.062;2023-11-22T00:21:56;4.10;;;2.60;;
9972;SDS011;5027;53.560;10.062;2023-11-22T00:24:23;4.03;;;2.93;;
9972;SDS011;5027;53.560;10.062;2023-11-22T00:26:50;3.53;;;3.23;;
9972;SDS011;5027;53.560;10.062;2023-11-22T00:29:16;6.23;;;3.10;;
9972;SDS011;5027;53.560;10.062;2023-11-22T00:31:44;3.87;;;3.00;;
9972;SDS011;5027;53.560;10.062;2023-11-22T00:34:11;3.47;;;2.83;;
9972;SDS011;5027;53.560;10.062;2023-11-22T00:36:38;4.77;;;2.93;;
9972;SDS011;5027;53.560;10.062;2023-11-22T00:39:05;3.57;;;2.70;;
9972;SDS011;5027;53.560;10.062;2023-11-22T00:41:31;3.20;;;2.90;;
9972;SDS011;5027;53.560;10.062;2023-11-22T00:43:58;6.93;;;3.37;;
9972;SDS011;5027;53.560;10.062;2023-11-22T00:46:25;3.63;;;3.00;;
9972;SDS011;5027;53.560;10.062;2023-11-22T00:48:52;4.07;;;3.00;;
9972;SDS011;5027;53.560;10.062;2023-11-22T00:51:19;3.60;;;2.60;;
9972;SDS011;5027;53.560;10.062;2023-11-22T00:53:46;3.30;;;2.83;;
9972;SDS011;5027;53.560;10.062;2023-11-22T00:56:13;3.47;;;2.97;;
9972;SDS011;5027;53.560;10.062;2023-11-22T00:58:40;4.10;;;2.87;;
9972;SDS011;5027;53.560;10.062;2023-11-22T01:01:07;5.50;;;3.17;;
9972;SDS011;5027;53.560;10.062;2023-11-22T01:03:34;4.83;;;3.23;;
9972;SDS011;5027;53.560;10.062;2023-11-22T01:06:01;5.13;;;3.30;;
9972;SDS011;5027;53.560;10.062;2023-11-22T01:08:30;3.37;;;2.73;;
9972;SDS011;5027;53.560;10.062;2023-11-22T01:10:57;4.80;;;3.00;;
9972;SDS011;5027;53.560;10.062;2023-11-22T01:13:24;3.77;;;3.33;;
9972;SDS011;5027;53.560;10.062;2023-11-22T01:15:51;4.20;;;3.07;;
9972;SDS011;5027;53.560;10.062;2023-11-22T01:18:17;4.20;;;3.47;;
9972;SDS011;5027;53.560;10.062;2023-11-22T01:20:45;5.17;;;3.53;;
9972;SDS011;5027;53.560;10.062;2023-11-22T01:23:12;5.37;;;3.63;;
9972;SDS011;5027;53.560;10.062;2023-11-22T01:25:39;4.37;;;3.10;;
9972;SDS011;5027;53.560;10.062;2023-11-22T01:28:06;5.50;;;4.23;;
9972;SDS011;5027;53.560;10.062;2023-11-22T01:30:33;3.77;;;3.47;;
9972;SDS011;5027;53.560;10.062;2023-11-22T01:32:59;6.20;;;3.57;;
9972;SDS011;5027;53.560;10.062;2023-11-22T01:35:26;5.33;;;3.57;;
9972;SDS011;5027;53.560;10.062;2023-11-22T01:37:53;3.33;;;2.97;;
9972;SDS011;5027;53.560;10.062;2023-11-22T01:40:20;4.10;;;3.03;;
9972;SDS011;5027;53.560;10.062;2023-11-22T01:42:48;4.00;;;3.00;;
9972;SDS011;5027;53.560;10.062;2023-11-22T01:45:15;6.20;;;3.30;;
9972;SDS011;5027;53.560;10.062;2023-11-22T01:47:42;4.80;;;3.30;;
9972;SDS011;5027;53.560;10.062;2023-11-22T01:50:09;4.67;;;3.40;;
9972;SDS011;5027;53.560;10.062;2023-11-22T01:52:37;4.40;;;3.20;;
9972;SDS011;5027;53.560;10.062;2023-11-22T01:55:05;3.80;;;3.33;;
9972;SDS011;5027;53.560;10.062;2023-11-22T01:57:33;3.23;;;2.70;;
9972;SDS011;5027;53.560;10.062;2023-11-22T02:00:02;3.60;;;3.00;;
9972;SDS011;5027;53.560;10.062;2023-11-22T02:02:38;3.60;;;2.80;;
9972;SDS011;5027;53.560;10.062;2023-11-22T02:05:05;4.67;;;3.60;;
9972;SDS011;5027;53.560;10.062;2023-11-22T02:07:32;3.90;;;3.03;;
9972;SDS011;5027;53.560;10.062;2023-11-22T02:09:58;4.47;;;3.27;;
9972;SDS011;5027;53.560;10.062;2023-11-22T02:12:25;3.20;;;2.90;;
9972;SDS011;5027;53.560;10.062;2023-11-22T02:14:52;3.47;;;3.17;;
9972;SDS011;5027;53.560;10.062;2023-11-22T02:17:19;4.87;;;3.30;;
9972;SDS011;5027;53.560;10.062;2023-11-22T02:19:47;3.83;;;3.43;;
9972;SDS011;5027;53.560;10.062;2023-11-22T02:22:14;6.03;;;2.93;;
9972;SDS011;5027;53.560;10.062;2023-11-22T02:24:43;3.53;;;3.23;;
9972;SDS011;5027;53.560;10.062;2023-11-22T02:27:10;5.13;;;2.80;;
9972;SDS011;5027;53.560;10.062;2023-11-22T02:29:37;4.17;;;2.77;;
9972;SDS011;5027;53.560;10.062;2023-11-22T02:32:04;4.97;;;2.60;;
9972;SDS011;5027;53.560;10.062;2023-11-22T02:34:31;4.30;;;2.50;;
9972;SDS011;5027;53.560;10.062;2023-11-22T02:36:57;3.03;;;2.73;;
9972;SDS011;5027;53.560;10.062;2023-11-22T02:39:32;3.33;;;2.80;;
9972;SDS011;5027;53.560;10.062;2023-11-22T02:42:21;3.10;;;2.80;;
9972;SDS011;5027;53.560;10.062;2023-11-22T02:44:48;4.83;;;3.20;;
9972;SDS011;5027;53.560;10.062;2023-11-22T02:47:15;4.37;;;2.70;;
9972;SDS011;5027;53.560;10.062;2023-11-22T02:49:41;3.43;;;3.13;;
9972;SDS011;5027;53.560;10.062;2023-11-22T02:52:08;3.00;;;2.70;;
9972;SDS011;5027;53.560;10.062;2023-11-22T02:54:38;3.57;;;2.93;;
9972;SDS011;5027;53.560;10.062;2023-11-22T02:57:09;4.43;;;3.33;;
9972;SDS011;5027;53.560;10.062;2023-11-22T02:59:36;3.37;;;3.07;;
9972;SDS011;5027;53.560;10.062;2023-11-22T03:02:03;4.20;;;3.47;;
9972;SDS011;5027;53.560;10.062;2023-11-22T03:04:30;4.83;;;3.33;;
9972;SDS011;5027;53.560;10.062;2023-11-22T03:06:57;4.30;;;3.27;;
9972;SDS011;5027;53.560;10.062;2023-11-22T03:09:23;4.20;;;3.00;;
9972;SDS011;5027;53.560;10.062;2023-11-22T03:11:50;7.00;;;3.13;;
9972;SDS011;5027;53.560;10.062;2023-11-22T03:14:18;3.60;;;3.00;;
9972;SDS011;5027;53.560;10.062;2023-11-22T03:16:45;4.30;;;3.40;;
9972;SDS011;5027;53.560;10.062;2023-11-22T03:19:12;3.77;;;3.20;;
9972;SDS011;5027;53.560;10.062;2023-11-22T03:21:39;4.77;;;3.10;;
9972;SDS011;5027;53.560;10.062;2023-11-22T03:24:10;5.40;;;4.23;;
9972;SDS011;5027;53.560;10.062;2023-11-22T03:26:37;7.80;;;3.47;;
9972;SDS011;5027;53.560;10.062;2023-11-22T03:29:05;5.53;;;3.37;;
9972;SDS011;5027;53.560;10.062;2023-11-22T03:31:32;4.23;;;3.50;;
9972;SDS011;5027;53.560;10.062;2023-11-22T03:33:59;3.47;;;2.90;;
9972;SDS011;5027;53.560;10.062;2023-11-22T03:36:26;3.67;;;3.37;;
9972;SDS011;5027;53.560;10.062;2023-11-22T03:38:53;4.00;;;3.23;;
9972;SDS011;5027;53.560;10.062;2023-11-22T03:41:20;5.43;;;3.20;;
9972;SDS011;5027;53.560;10.062;2023-11-22T03:43:47;4.27;;;3.20;;
9972;SDS011;5027;53.560;10.062;2023-11-22T03:46:14;5.33;;;3.80;;
9972;SDS011;5027;53.560;10.062;2023-11-22T03:48:40;4.87;;;3.53;;
9972;SDS011;5027;53.560;10.062;2023-11-22T03:51:07;3.57;;;3.27;;
9972;SDS011;5027;53.560;10.062;2023-11-22T03:53:34;3.93;;;3.53;;
9972;SDS011;5027;53.560;10.062;2023-11-22T03:56:01;4.40;;;3.40;;
9972;SDS011;5027;53.560;10.062;2023-11-22T03:58:27;5.13;;;3.50;;
9972;SDS011;5027;53.560;10.062;2023-11-22T04:00:54;3.57;;;3.27;;
9972;SDS011;5027;53.560;10.062;2023-11-22T04:03:21;3.93;;;3.37;;
9972;SDS011;5027;53.560;10.062;2023-11-22T04:05:49;3.77;;;3.40;;
9972;SDS011;5027;53.560;10.062;2023-11-22T04:08:15;5.10;;;3.83;;
9972;SDS011;5027;53.560;10.062;2023-11-22T04:10:42;4.13;;;3.20;;
9972;SDS011;5027;53.560;10.062;2023-11-22T04:13:09;4.20;;;3.47;;
9972;SDS011;5027;53.560;10.062;2023-11-22T04:15:36;4.40;;;3.27;;
9972;SDS011;5027;53.560;10.062;2023-11-22T04:18:03;3.37;;;3.07;;
9972;SDS011;5027;53.560;10.062;2023-11-22T04:20:30;4.37;;;3.47;;
9972;SDS011;5027;53.560;10.062;2023-11-22T04:22:58;4.00;;;3.60;;
9972;SDS011;5027;53.560;10.062;2023-11-22T04:25:24;5.50;;;3.50;;
9972;SDS011;5027;53.560;10.062;2023-11-22T04:27:51;7.33;;;3.50;;
9972;SDS011;5027;53.560;10.062;2023-11-22T04:30:18;5.33;;;3.77;;
9972;SDS011;5027;53.560;10.062;2023-11-22T04:32:44;8.53;;;4.37;;
9972;SDS011;5027;53.560;10.062;2023-11-22T04:35:12;8.83;;;4.40;;
9972;SDS011;5027;53.560;10.062;2023-11-22T04:37:39;6.40;;;4.40;;
9972;SDS011;5027;53.560;10.062;2023-11-22T04:40:06;5.47;;;4.23;;
9972;SDS011;5027;53.560;10.062;2023-11-22T04:42:37;4.27;;;3.87;;
9972;SDS011;5027;53.560;10.062;2023-11-22T04:45:04;5.70;;;4.30;;
9972;SDS011;5027;53.560;10.062;2023-11-22T04:47:32;5.27;;;3.83;;
9972;SDS011;5027;53.560;10.062;2023-11-22T04:49:59;5.23;;;3.97;;
9972;SDS011;5027;53.560;10.062;2023-11-22T04:52:26;4.93;;;3.80;;
9972;SDS011;5027;53.560;10.062;2023-11-22T04:54:57;4.47;;;3.80;;
9972;SDS011;5027;53.560;10.062;2023-11-22T04:57:23;5.60;;;3.77;;
9972;SDS011;5027;53.560;10.062;2023-11-22T04:59:50;5.10;;;3.90;;
9972;SDS011;5027;53.560;10.062;2023-11-22T05:02:17;4.90;;;3.80;;
9972;SDS011;5027;53.560;10.062;2023-11-22T05:04:45;4.87;;;3.63;;
9972;SDS011;5027;53.560;10.062;2023-11-22T05:07:14;6.30;;;3.20;;
9972;SDS011;5027;53.560;10.062;2023-11-22T05:09:41;4.37;;;3.90;;
9972;SDS011;5027;53.560;10.062;2023-11-22T05:12:11;5.13;;;3.77;;
9972;SDS011;5027;53.560;10.062;2023-11-22T05:14:38;5.10;;;3.83;;
9972;SDS011;5027;53.560;10.062;2023-11-22T05:17:05;5.23;;;4.17;;
9972;SDS011;5027;53.560;10.062;2023-11-22T05:19:32;5.57;;;4.00;;
9972;SDS011;5027;53.560;10.062;2023-11-22T05:21:59;5.73;;;3.67;;
9972;SDS011;5027;53.560;10.062;2023-11-22T05:24:25;5.47;;;3.97;;
9972;SDS011;5027;53.560;10.062;2023-11-22T05:26:52;7.17;;;4.30;;
9972;SDS011;5027;53.560;10.062;2023-11-22T05:29:19;6.83;;;3.80;;
9972;SDS011;5027;53.560;10.062;2023-11-22T05:31:46;5.47;;;3.63;;
9972;SDS011;5027;53.560;10.062;2023-11-22T05:34:13;4.37;;;3.63;;
9972;SDS011;5027;53.560;10.062;2023-11-22T05:36:39;4.27;;;3.30;;
9972;SDS011;5027;53.560;10.062;2023-11-22T05:39:06;4.40;;;3.50;;
9972;SDS011;5027;53.560;10.062;2023-11-22T05:41:33;5.20;;;4.17;;
9972;SDS011;5027;53.560;10.062;2023-11-22T05:44:00;5.87;;;4.10;;
9972;SDS011;5027;53.560;10.062;2023-11-22T05:46:26;6.07;;;3.43;;
9972;SDS011;5027;53.560;10.062;2023-11-22T05:48:54;7.50;;;5.37;;
9972;SDS011;5027;53.560;10.062;2023-11-22T05:51:21;6.47;;;4.43;;
9972;SDS011;5027;53.560;10.062;2023-11-22T05:53:47;5.97;;;4.33;;
9972;SDS011;5027;53.560;10.062;2023-11-22T05:56:14;5.70;;;4.67;;
9972;SDS011;5027;53.560;10.062;2023-11-22T05:58:43;7.27;;;4.93;;
9972;SDS011;5027;53.560;10.062;2023-11-22T06:01:09;7.50;;;5.17;;
9972;SDS011;5027;53.560;10.062;2023-11-22T06:03:38;5.03;;;4.47;;
9972;SDS011;5027;53.560;10.062;2023-11-22T06:06:05;5.77;;;4.20;;
9972;SDS011;5027;53.560;10.062;2023-11-22T06:08:33;8.90;;;4.57;;
9972;SDS011;5027;53.560;10.062;2023-11-22T06:11:00;8.23;;;5.07;;
9972;SDS011;5027;53.560;10.062;2023-11-22T06:13:26;6.40;;;4.37;;
9972;SDS011;5027;53.560;10.062;2023-11-22T06:15:53;6.63;;;4.83;;
9972;SDS011;5027;53.560;10.062;2023-11-22T06:18:20;6.43;;;4.03;;
9972;SDS011;5027;53.560;10.062;2023-11-22T06:20:47;6.30;;;4.50;;
9972;SDS011;5027;53.560;10.062;2023-11-22T06:23:14;6.30;;;4.57;;
9972;SDS011;5027;53.560;10.062;2023-11-22T06:25:41;7.23;;;4.30;;
9972;SDS011;5027;53.560;10.062;2023-11-22T06:28:09;7.00;;;5.53;;
9972;SDS011;5027;53.560;10.062;2023-11-22T06:30:35;5.83;;;4.97;;
9972;SDS011;5027;53.560;10.062;2023-11-22T06:33:02;6.97;;;5.07;;
9972;SDS011;5027;53.560;10.062;2023-11-22T06:35:29;7.23;;;4.37;;
9972;SDS011;5027;53.560;10.062;2023-11-22T06:37:56;8.93;;;4.83;;
9972;SDS011;5027;53.560;10.062;2023-11-22T06:40:22;9.90;;;5.40;;
9972;SDS011;5027;53.560;10.062;2023-11-22T06:42:49;5.67;;;4.80;;
9972;SDS011;5027;53.560;10.062;2023-11-22T06:45:16;7.00;;;5.30;;
9972;SDS011;5027;53.560;10.062;2023-11-22T06:47:43;4.73;;;4.23;;
9972;SDS011;5027;53.560;10.062;2023-11-22T06:50:13;6.27;;;4.90;;
9972;SDS011;5027;53.560;10.062;2023-11-22T06:52:41;10.23;;;4.90;;
9972;SDS011;5027;53.560;10.062;2023-11-22T06:55:09;6.97;;;5.20;;
9972;SDS011;5027;53.560;10.062;2023-11-22T06:57:37;7.53;;;5.17;;
9972;SDS011;5027;53.560;10.062;2023-11-22T07:00:04;6.17;;;5.07;;
9972;SDS011;5027;53.560;10.062;2023-11-22T07:02:32;7.03;;;5.73;;
9972;SDS011;5027;53.560;10.062;2023-11-22T07:04:59;8.23;;;5.03;;
9972;SDS011;5027;53.560;10.062;2023-11-22T07:07:26;6.87;;;5.43;;
9972;SDS011;5027;53.560;10.062;2023-11-22T07:09:53;6.83;;;5.40;;
9972;SDS011;5027;53.560;10.062;2023-11-22T07:12:22;7.53;;;5.30;;
9972;SDS011;5027;53.560;10.062;2023-11-22T07:14:49;5.67;;;5.10;;
9972;SDS011;5027;53.560;10.062;2023-11-22T07:17:16;6.70;;;5.23;;
9972;SDS011;5027;53.560;10.062;2023-11-22T07:19:44;7.83;;;5.40;;
9972;SDS011;5027;53.560;10.062;2023-11-22T07:22:15;7.43;;;5.13;;
9972;SDS011;5027;53.560;10.062;2023-11-22T07:24:43;7.53;;;5.63;;
9972;SDS011;5027;53.560;10.062;2023-11-22T07:27:11;11.80;;;6.13;;
9972;SDS011;5027;53.560;10.062;2023-11-22T07:29:41;8.40;;;5.53;;
9972;SDS011;5027;53.560;10.062;2023-11-22T07:32:10;7.67;;;5.20;;
9972;SDS011;5027;53.560;10.062;2023-11-22T07:34:37;9.87;;;5.20;;
9972;SDS011;5027;53.560;10.062;2023-11-22T07:37:05;8.77;;;5.07;;
9972;SDS011;5027;53.560;10.062;2023-11-22T07:39:36;9.90;;;5.43;;
9972;SDS011;5027;53.560;10.062;2023-11-22T07:42:04;8.60;;;5.87;;
9972;SDS011;5027;53.560;10.062;2023-11-22T07:44:35;7.63;;;5.93;;
9972;SDS011;5027;53.560;10.062;2023-11-22T07:47:04;10.23;;;7.60;;
9972;SDS011;5027;53.560;10.062;2023-11-22T07:49:40;10.10;;;5.60;;
9972;SDS011;5027;53.560;10.062;2023-11-22T07:52:08;8.40;;;5.70;;
9972;SDS011;5027;53.560;10.062;2023-11-22T07:54:40;10.50;;;5.37;;
9972;SDS011;5027;53.560;10.062;2023-11-22T07:57:06;11.67;;;5.77;;
9972;SDS011;5027;53.560;10.062;2023-11-22T07:59:33;9.37;;;6.23;;
9972;SDS011;5027;53.560;10.062;2023-11-22T08:02:00;11.50;;;8.40;;
9972;SDS011;5027;53.560;10.062;2023-11-22T08:04:33;6.90;;;5.53;;
9972;SDS011;5027;53.560;10.062;2023-11-22T08:06:59;9.57;;;5.43;;
9972;SDS011;5027;53.560;10.062;2023-11-22T08:09:27;8.83;;;5.60;;
9972;SDS011;5027;53.560;10.062;2023-11-22T08:11:58;14.73;;;6.67;;
9972;SDS011;5027;53.560;10.062;2023-11-22T08:14:31;9.13;;;6.27;;
9972;SDS011;5027;53.560;10.062;2023-11-22T08:16:58;8.90;;;6.40;;
9972;SDS011;5027;53.560;10.062;2023-11-22T08:19:25;6.20;;;5.60;;
9972;SDS011;5027;53.560;10.062;2023-11-22T08:21:53;6.50;;;5.30;;
9972;SDS011;5027;53.560;10.062;2023-11-22T08:24:20;6.67;;;5.53;;
9972;SDS011;5027;53.560;10.062;2023-11-22T08:26:47;7.50;;;5.60;;
9972;SDS011;5027;53.560;10.062;2023-11-22T08:29:14;8.30;;;4.97;;
9972;SDS011;5027;53.560;10.062;2023-11-22T08:31:40;9.07;;;5.80;;
9972;SDS011;5027;53.560;10.062;2023-11-22T08:34:07;6.50;;;5.73;;
9972;SDS011;5027;53.560;10.062;2023-11-22T08:36:35;9.17;;;6.27;;
9972;SDS011;5027;53.560;10.062;2023-11-22T08:39:02;7.97;;;6.43;;
9972;SDS011;5027;53.560;10.062;2023-11-22T08:41:30;10.07;;;6.27;;
9972;SDS011;5027;53.560;10.062;2023-11-22T08:43:58;8.03;;;5.43;;
9972;SDS011;5027;53.560;10.062;2023-11-22T08:46:26;9.90;;;6.50;;
9972;SDS011;5027;53.560;10.062;2023-11-22T08:48:53;6.87;;;6.03;;
9972;SDS011;5027;53.560;10.062;2023-11-22T08:51:20;9.37;;;5.33;;
9972;SDS011;5027;53.560;10.062;2023-11-22T08:53:47;12.70;;;5.83;;
9972;SDS011;5027;53.560;10.062;2023-11-22T08:56:14;8.00;;;5.47;;
9972;SDS011;5027;53.560;10.062;2023-11-22T08:58:42;5.87;;;5.27;;
9972;SDS011;5027;53.560;10.062;2023-11-22T09:01:09;9.60;;;5.63;;
9972;SDS011;5027;53.560;10.062;2023-11-22T09:03:37;6.43;;;5.17;;
9972;SDS011;5027;53.560;10.062;2023-11-22T09:06:04;8.03;;;5.07;;
9972;SDS011;5027;53.560;10.062;2023-11-22T09:08:33;5.57;;;4.80;;
9972;SDS011;5027;53.560;10.062;2023-11-22T09:11:02;6.57;;;5.10;;
9972;SDS011;5027;53.560;10.062;2023-11-22T09:13:32;6.37;;;5.03;;
9972;SDS011;5027;53.560;10.062;2023-11-22T09:16:01;9.93;;;5.07;;
9972;SDS011;5027;53.560;10.062;2023-11-22T09:18:31;6.40;;;5.00;;
9972;SDS011;5027;53.560;10.062;2023-11-22T09:20:58;9.57;;;5.20;;
9972;SDS011;5027;53.560;10.062;2023-11-22T09:23:25;6.33;;;5.47;;
9972;SDS011;5027;53.560;10.062;2023-11-22T09:25:53;8.90;;;6.57;;
9972;SDS011;5027;53.560;10.062;2023-11-22T09:28:20;8.43;;;5.53;;
9972;SDS011;5027;53.560;10.062;2023-11-22T09:30:47;5.87;;;5.17;;
9972;SDS011;5027;53.560;10.062;2023-11-22T09:33:15;6.70;;;5.60;;
9972;SDS011;5027;53.560;10.062;2023-11-22T09:35:42;7.57;;;5.87;;
9972;SDS011;5027;53.560;10.062;2023-11-22T09:38:11;5.67;;;5.07;;
9972;SDS011;5027;53.560;10.062;2023-11-22T09:40:42;7.33;;;5.87;;
9972;SDS011;5027;53.560;10.062;2023-11-22T09:43:13;6.70;;;4.73;;
9972;SDS011;5027;53.560;10.062;2023-11-22T09:45:44;5.73;;;4.73;;
9972;SDS011;5027;53.560;10.062;2023-11-22T09:48:14;7.93;;;5.13;;
9972;SDS011;5027;53.560;10.062;2023-11-22T09:51:02;7.57;;;5.13;;
9972;SDS011;5027;53.560;10.062;2023-11-22T09:53:40;7.87;;;5.10;;
9972;SDS011;5027;53.560;10.062;2023-11-22T09:56:12;6.77;;;4.83;;
9972;SDS011;5027;53.560;10.062;2023-11-22T09:58:42;6.93;;;4.83;;
9972;SDS011;5027;53.560;10.062;2023-11-22T10:01:13;5.87;;;4.70;;
9972;SDS011;5027;53.560;10.062;2023-11-22T10:03:41;4.53;;;3.80;;
9972;SDS011;5027;53.560;10.062;2023-11-22T10:06:08;6.87;;;4.63;;
9972;SDS011;5027;53.560;10.062;2023-11-22T10:08:36;6.00;;;3.90;;
9972;SDS011;5027;53.560;10.062;2023-11-22T10:11:04;9.73;;;3.90;;
9972;SDS011;5027;53.560;10.062;2023-11-22T10:13:31;6.20;;;4.40;;
9972;SDS011;5027;53.560;10.062;2023-11-22T10:16:09;7.93;;;5.20;;
9972;SDS011;5027;53.560;10.062;2023-11-22T10:18:41;6.83;;;4.97;;
9972;SDS011;5027;53.560;10.062;2023-11-22T10:21:22;9.07;;;5.10;;
9972;SDS011;5027;53.560;10.062;2023-11-22T10:23:54;6.80;;;4.70;;
9972;SDS011;5027;53.560;10.062;2023-11-22T10:26:23;9.60;;;4.40;;
9972;SDS011;5027;53.560;10.062;2023-11-22T10:28:51;5.67;;;4.50;;
9972;SDS011;5027;53.560;10.062;2023-11-22T10:31:19;7.30;;;4.30;;
9972;SDS011;5027;53.560;10.062;2023-11-22T10:33:48;6.57;;;4.33;;
9972;SDS011;5027;53.560;10.062;2023-11-22T10:36:15;8.57;;;3.87;;
9972;SDS011;5027;53.560;10.062;2023-11-22T10:38:45;4.33;;;3.57;;
9972;SDS011;5027;53.560;10.062;2023-11-22T10:41:13;6.80;;;3.83;;
9972;SDS011;5027;53.560;10.062;2023-11-22T10:43:40;7.63;;;4.30;;
9972;SDS011;5027;53.560;10.062;2023-11-22T10:46:08;6.00;;;3.97;;
9972;SDS011;5027;53.560;10.062;2023-11-22T10:48:39;6.23;;;3.77;;
9972;SDS011;5027;53.560;10.062;2023-11-22T10:51:06;8.50;;;4.37;;
9972;SDS011;5027;53.560;10.062;2023-11-22T10:53:37;4.20;;;3.70;;
9972;SDS011;5027;53.560;10.062;2023-11-22T10:56:14;7.77;;;5.70;;
9972;SDS011;5027;53.560;10.062;2023-11-22T10:58:46;7.93;;;4.47;;
9972;SDS011;5027;53.560;10.062;2023-11-22T11:01:20;9.50;;;3.63;;
9972;SDS011;5027;53.560;10.062;2023-11-22T11:03:55;5.97;;;3.73;;
9972;SDS011;5027;53.560;10.062;2023-11-22T11:06:29;6.60;;;3.87;;
9972;SDS011;5027;53.560;10.062;2023-11-22T11:09:00;5.13;;;3.67;;
9972;SDS011;5027;53.560;10.062;2023-11-22T11:11:35;5.83;;;3.63;;
9972;SDS011;5027;53.560;10.062;2023-11-22T11:14:03;4.97;;;3.67;;
9972;SDS011;5027;53.560;10.062;2023-11-22T11:16:32;7.47;;;3.60;;
9972;SDS011;5027;53.560;10.062;2023-11-22T11:19:14;5.43;;;3.37;;
9972;SDS011;5027;53.560;10.062;2023-11-22T11:21:43;4.27;;;3.73;;
9972;SDS011;5027;53.560;10.062;2023-11-22T11:24:10;4.57;;;3.47;;
9972;SDS011;5027;53.560;10.062;2023-11-22T11:26:38;5.80;;;3.20;;
9972;SDS011;5027;53.560;10.062;2023-11-22T11:29:04;4.80;;;3.60;;
9972;SDS011;5027;53.560;10.062;2023-11-22T11:31:34;7.20;;;3.73;;
9972;SDS011;5027;53.560;10.062;2023-11-22T11:34:06;5.47;;;3.37;;
9972;SDS011;5027;53.560;10.062;2023-11-22T11:36:33;7.00;;;3.53;;
9972;SDS011;5027;53.560;10.062;2023-11-22T11:39:07;5.43;;;3.67;;
9972;SDS011;5027;53.560;10.062;2023-11-22T11:41:41;10.07;;;3.50;;
9972;SDS011;5027;53.560;10.062;2023-11-22T11:44:09;6.17;;;3.30;;
9972;SDS011;5027;53.560;10.062;2023-11-22T11:46:37;4.97;;;3.03;;
9972;SDS011;5027;53.560;10.062;2023-11-22T11:49:09;5.27;;;3.60;;
9972;SDS011;5027;53.560;10.062;2023-11-22T11:51:40;6.93;;;3.57;;
9972;SDS011;5027;53.560;10.062;2023-11-22T11:54:07;6.27;;;3.43;;
9972;SDS011;5027;53.560;10.062;2023-11-22T11:56:36;10.17;;;3.13;;
9972;SDS011;5027;53.560;10.062;2023-11-22T11:59:03;7.70;;;3.37;;
9972;SDS011;5027;53.560;10.062;2023-11-22T12:01:31;3.10;;;2.80;;
9972;SDS011;5027;53.560;10.062;2023-11-22T12:04:02;4.20;;;2.77;;
9972;SDS011;5027;53.560;10.062;2023-11-22T12:06:30;3.37;;;2.60;;
9972;SDS011;5027;53.560;10.062;2023-11-22T12:09:00;2.57;;;2.23;;
9972;SDS011;5027;53.560;10.062;2023-11-22T12:11:27;3.07;;;2.47;;
9972;SDS011;5027;53.560;10.062;2023-11-22T12:13:56;3.40;;;2.10;;
9972;SDS011;5027;53.560;10.062;2023-11-22T12:16:25;3.73;;;1.97;;
9972;SDS011;5027;53.560;10.062;2023-11-22T12:18:53;2.30;;;2.00;;
9972;SDS011;5027;53.560;10.062;2023-11-22T12:21:21;3.27;;;2.20;;
9972;SDS011;5027;53.560;10.062;2023-11-22T12:23:48;4.30;;;1.83;;
9972;SDS011;5027;53.560;10.062;2023-11-22T12:26:17;5.33;;;2.03;;
9972;SDS011;5027;53.560;10.062;2023-11-22T12:28:46;4.67;;;2.53;;
9972;SDS011;5027;53.560;10.062;2023-11-22T12:31:29;3.03;;;2.33;;
9972;SDS011;5027;53.560;10.062;2023-11-22T12:34:00;5.80;;;2.50;;
9972;SDS011;5027;53.560;10.062;2023-11-22T12:36:28;3.80;;;2.00;;
9972;SDS011;5027;53.560;10.062;2023-11-22T12:38:56;2.83;;;2.00;;
9972;SDS011;5027;53.560;10.062;2023-11-22T12:41:26;2.20;;;1.70;;
9972;SDS011;5027;53.560;10.062;2023-11-22T12:44:02;3.07;;;2.30;;
9972;SDS011;5027;53.560;10.062;2023-11-22T12:49:27;4.33;;;2.50;;
9972;SDS011;5027;53.560;10.062;2023-11-22T12:51:57;3.70;;;2.30;;
9972;SDS011;5027;53.560;10.062;2023-11-22T12:54:24;3.03;;;2.20;;
9972;SDS011;5027;53.560;10.062;2023-11-22T12:56:51;3.07;;;2.20;;
9972;SDS011;5027;53.560;10.062;2023-11-22T12:59:25;3.57;;;2.47;;
9972;SDS011;5027;53.560;10.062;2023-11-22T13:01:54;4.23;;;2.30;;
9972;SDS011;5027;53.560;10.062;2023-11-22T13:04:22;5.00;;;2.50;;
9972;SDS011;5027;53.560;10.062;2023-11-22T13:06:49;3.47;;;2.60;;
9972;SDS011;5027;53.560;10.062;2023-11-22T13:09:15;4.73;;;2.47;;
9972;SDS011;5027;53.560;10.062;2023-11-22T13:11:43;5.80;;;3.00;;
9972;SDS011;5027;53.560;10.062;2023-11-22T13:14:10;6.07;;;2.50;;
9972;SDS011;5027;53.560;10.062;2023-11-22T13:16:40;3.83;;;2.40;;
9972;SDS011;5027;53.560;10.062;2023-11-22T13:19:07;2.93;;;2.10;;
9972;SDS011;5027;53.560;10.062;2023-11-22T13:21:35;3.90;;;2.43;;
9972;SDS011;5027;53.560;10.062;2023-11-22T13:24:02;4.07;;;1.93;;
9972;SDS011;5027;53.560;10.062;2023-11-22T13:26:31;3.73;;;1.83;;
9972;SDS011;5027;53.560;10.062;2023-11-22T13:28:57;1.90;;;1.50;;
9972;SDS011;5027;53.560;10.062;2023-11-22T13:31:25;3.70;;;2.10;;
9972;SDS011;5027;53.560;10.062;2023-11-22T13:33:52;5.60;;;2.03;;
9972;SDS011;5027;53.560;10.062;2023-11-22T13:36:18;2.73;;;1.50;;
9972;SDS011;5027;53.560;10.062;2023-11-22T13:38:45;3.10;;;1.80;;
9972;SDS011;5027;53.560;10.062;2023-11-22T13:41:12;2.00;;;1.60;;
9972;SDS011;5027;53.560;10.062;2023-11-22T13:43:38;1.93;;;1.40;;
9972;SDS011;5027;53.560;10.062;2023-11-22T13:46:06;1.40;;;1.30;;
9972;SDS011;5027;53.560;10.062;2023-11-22T13:48:36;3.23;;;1.53;;
9972;SDS011;5027;53.560;10.062;2023-11-22T13:51:03;1.80;;;1.57;;
9972;SDS011;5027;53.560;10.062;2023-11-22T13:53:33;2.80;;;1.33;;
9972;SDS011;5027;53.560;10.062;2023-11-22T13:56:03;2.73;;;1.60;;
9972;SDS011;5027;53.560;10.062;2023-11-22T13:58:35;3.17;;;1.83;;
9972;SDS011;5027;53.560;10.062;2023-11-22T14:01:02;3.70;;;1.60;;
9972;SDS011;5027;53.560;10.062;2023-11-22T14:03:32;2.77;;;1.50;;
9972;SDS011;5027;53.560;10.062;2023-11-22T14:05:59;2.60;;;1.67;;
9972;SDS011;5027;53.560;10.062;2023-11-22T14:08:27;5.13;;;2.00;;
9972;SDS011;5027;53.560;10.062;2023-11-22T14:10:54;2.37;;;1.20;;
9972;SDS011;5027;53.560;10.062;2023-11-22T14:13:22;3.00;;;1.40;;
9972;SDS011;5027;53.560;10.062;2023-11-22T14:15:49;2.23;;;1.50;;
9972;SDS011;5027;53.560;10.062;2023-11-22T14:18:16;3.20;;;1.67;;
9972;SDS011;5027;53.560;10.062;2023-11-22T14:20:43;8.40;;;1.80;;
9972;SDS011;5027;53.560;10.062;2023-11-22T14:23:10;3.20;;;1.73;;
9972;SDS011;5027;53.560;10.062;2023-11-22T14:25:37;3.00;;;1.60;;
9972;SDS011;5027;53.560;10.062;2023-11-22T14:28:07;4.47;;;1.67;;
9972;SDS011;5027;53.560;10.062;2023-11-22T14:30:35;2.30;;;1.60;;
9972;SDS011;5027;53.560;10.062;2023-11-22T14:33:03;4.13;;;1.57;;
9972;SDS011;5027;53.560;10.062;2023-11-22T14:35:34;2.70;;;1.73;;
9972;SDS011;5027;53.560;10.062;2023-11-22T14:38:04;1.97;;;1.70;;
9972;SDS011;5027;53.560;10.062;2023-11-22T14:40:33;3.20;;;1.60;;
9972;SDS011;5027;53.560;10.062;2023-11-22T14:43:01;2.80;;;2.33;;
9972;SDS011;5027;53.560;10.062;2023-11-22T14:45:29;5.83;;;2.20;;
9972;SDS011;5027;53.560;10.062;2023-11-22T14:47:57;3.07;;;2.03;;
9972;SDS011;5027;53.560;10.062;2023-11-22T14:50:28;2.33;;;1.80;;
9972;SDS011;5027;53.560;10.062;2023-11-22T14:52:55;2.97;;;2.20;;
9972;SDS011;5027;53.560;10.062;2023-11-22T14:55:22;3.27;;;2.30;;
9972;SDS011;5027;53.560;10.062;2023-11-22T14:57:51;2.67;;;2.17;;
9972;SDS011;5027;53.560;10.062;2023-11-22T15:00:20;4.13;;;2.73;;
9972;SDS011;5027;53.560;10.062;2023-11-22T15:02:47;3.90;;;2.50;;
9972;SDS011;5027;53.560;10.062;2023-11-22T15:05:18;2.87;;;2.27;;
9972;SDS011;5027;53.560;10.062;2023-11-22T15:07:45;3.13;;;2.30;;
9972;SDS011;5027;53.560;10.062;2023-11-22T15:10:12;3.20;;;2.10;;